Zielona Gora-Babimost Airport Babimost PL
ICAO: EPZG
IATA: IEG
Category: Medium
Scheduled Services: Yes

Elevation: 194 ft
TransAlt. 6500 ft.

Airport Communications:
TWR:118.75

EPZG Zoom In..

Runways:

(A) RW 06 length 8202 ft width 197 ft
---- / hdg 62

(B) RW 24 length 8202 ft width 197 ft
---- / hdg 242

Location; EPZG
Day. 05 / Time. 16.30 Zulu
* QNH: 1009
* Temperature: 28° c. 82.4°f.
* Wind from: 250° Speed 16 kn.
Dewpoint: 14° c.
Visibility: 10 km or more,
No clouds below 1,500 m.
No cumulonimbus, and no significant weather
fenomena in the aerodrome or its vicinity.

EPZG 051630Z 25016KT 210V270 CAVOK 28/14 Q1009

Going to: --> -->


Wind From 250°
Speed 16 kn.

 
 
jpsmedia worldairports.se 2020   terms of use